Henderson, NV (89009)

4:45 PM PDT en Septiembre 02, 2014 (GMT -0700)
River Mountain Ridge | Change Station
CLOSE
Current Station
Estación meteorológica personal
Location: Henderson, NV
Altura: 1942 ft
Estaciones meteorológicas cercanas

Alt 1942 ft 36.04 °N, 114.95 °W | Updated 57 seconds ago

Despejado
Despejado
105.8 ° F
Sensación térmica 103 ° F
N
4.0
Viento Variable Viento desde SE
Gusts 9.0 mph

Hoy
Alta -- | Baja -- ° F
--% Posibilidad de precipitaciones
Ayer
Alta -- | Baja -- ° F
Precip. -- pul
6:12 AM 7:05 PM
Cuarto creciente, 56% visible
Presión 29.73 pul
Visibilidad 10.0 Millas
Nubes Despejado
Índice de calor 103 ° F
Punto de rocío 50 ° F
Humedad 16%
Precipitaciones 0.00 pul
Espesor de la nieve No disponible.
UV 3 de una escala de 12
Polen 7.50 de una escala de 12
Ozono Buena
PM2.5 Buena
Flu Activity No disponible.
METAR KBVU 022335Z AUTO 15018G26KT 10SM CLR 39/03 A2973 RMK AO2

More Conditions Fewer Conditions

Presión 29.73 pul
Visibilidad 10.0 Millas
Nubes Despejado
Índice de calor 103 ° F
Punto de rocío 50 ° F
Humedad 16%
Precipitaciones 0.00 pul
Espesor de la nieve No disponible.
UV 3 de una escala de 12
Polen 7.50 de una escala de 12
Ozono Buena
PM2.5 Buena
Flu Activity No disponible.
METAR KBVU 022335Z AUTO 15018G26KT 10SM CLR 39/03 A2973 RMK AO2

More Conditions Fewer Conditions

10-Day Weather Forecast

Almanac

Astronomía

Sep. 02, 2014 Salida Puesta
Hora real 6:12 AM PDT 7:05 PM PDT
Crepúsculo civil 5:46 AM PDT 7:32 PM PDT
Crepúsculo náutico 5:15 AM PDT 8:02 PM PDT
Crepúsculo astronómico 4:43 AM PDT 8:34 PM PDT
Luna 1:47 PM PDT Sin puesta de luna
Horas de luz 13h 45m
Horas de luz
12h 53m
Tomorrow will be 2m 11s shorter.
Cuarto creciente, 56% of the Moon is Illuminated
Hoy
Cuarto creciente
Sep 8
Luna llena
Sep 15
Cuarto menguante
Sep 24
Nueva
Oct 1
Cuarto creciente

Extremos de hoy

Máximos del estado Bajos del estado

Community

WunderPhotos

Upload Photos

1,749,799 ¡fotos cargadas!

Nearby

Calidad del aire

  Calidad del aire Índice AQ Contaminante
Ayer Moderada
OZONE
Ayer Buena
PM10
Real Buena
OZONE
Real Buena
PM2.5
Martes Moderada
OZONE
Martes Buena
PM10
Miércoles Moderada
OZONE
Miércoles Buena
PM10
Jueves Moderada
OZONE
Jueves Buena
PM10
Viernes Moderada
OZONE
Viernes Buena
PM10
Sábado Moderada
OZONE
Sábado Buena
PM10
Domingo Moderada
OZONE
Domingo Buena
PM10

Grosos de nieve

Estación Profundido Altura
Diamond Peak 0 in 8000 ft
Dorsey Basin 0 in 8100 ft
Taylor Canyon 1 in 6200 ft
Jacks Peak 3 in 8420 ft
Bear Creek 0 in 7800 ft

Actividad de terremotos

Ciudad Distance Mag. Tiempo y dato
No hay informes recientes de la actividad sísmica.
Magnitud mínima muestra es 2,5.

Temperaturas de aguas costeras

Lugar Temperatura
Sin partes meteorológicos de las estaciones

Estaciones meteorológicas cercanas